Terminal Aerodrome Forecast
Issued by NWS Sioux Falls, SD

Home | Current Version | Previous Version | Text Only | Print | Product List | Glossary Off
Versions: 1 2 3 4 5 6 7 8 9 10 11 12 13 14 15

949
FTUS43 KFSD 242320
TAFHON
TAF
KHON 242320Z 2500/2524 30008KT P6SM BKN150
     FM250200 24005KT P6SM BKN200
     FM250700 33007KT P6SM SCT090
     FM251600 32013KT P6SM SCT035=

USA.gov is the U.S. government's official web portal to all federal, state and local government web resources and services.